createdAt,value
2017-12-26T00:00:10.453Z,30.00
2017-12-26T00:02:37.531Z,26.85
2017-12-26T00:05:05.450Z,25.88
2017-12-26T00:07:32.478Z,29.00
2017-12-26T00:09:59.511Z,27.50
2017-12-26T00:12:31.375Z,26.00
2017-12-26T00:14:58.711Z,21.77
2017-12-26T00:17:25.632Z,19.70
2017-12-26T00:19:52.595Z,22.25
2017-12-26T00:22:19.658Z,21.08
2017-12-26T00:24:47.422Z,22.98
2017-12-26T00:27:15.197Z,21.20
2017-12-26T00:29:42.174Z,22.40
2017-12-26T00:32:09.221Z,20.67
2017-12-26T00:34:36.131Z,20.55
2017-12-26T00:37:03.257Z,20.92
2017-12-26T00:39:30.403Z,19.70
2017-12-26T00:41:57.375Z,21.75
2017-12-26T00:44:24.368Z,21.23
2017-12-26T00:46:51.226Z,21.80
2017-12-26T00:49:19.266Z,20.95
2017-12-26T00:51:48.246Z,19.55
2017-12-26T00:54:16.495Z,19.05
2017-12-26T00:56:43.422Z,19.17
2017-12-26T00:59:10.648Z,19.08
2017-12-26T01:01:37.593Z,21.17
2017-12-26T01:04:04.526Z,14.98
2017-12-26T01:06:31.655Z,17.10
2017-12-26T01:08:58.635Z,16.98
2017-12-26T01:11:25.586Z,15.88
2017-12-26T01:13:52.625Z,16.30
2017-12-26T01:16:19.573Z,15.85
2017-12-26T01:18:46.583Z,14.07
2017-12-26T01:21:13.671Z,15.30
2017-12-26T01:23:41.340Z,16.20
2017-12-26T01:26:08.959Z,15.07
2017-12-26T01:28:36.979Z,14.48
2017-12-26T01:31:04.079Z,15.10
2017-12-26T01:33:31.002Z,16.45
2017-12-26T01:35:59.122Z,17.52
2017-12-26T01:38:27.427Z,17.67
2017-12-26T01:40:55.243Z,17.90
2017-12-26T01:43:22.279Z,16.58
2017-12-26T01:45:49.330Z,17.75
2017-12-26T01:48:16.190Z,17.30
2017-12-26T01:50:43.119Z,17.25
2017-12-26T01:53:09.999Z,17.58
2017-12-26T01:55:36.890Z,17.85
2017-12-26T01:58:03.726Z,16.52
2017-12-26T02:00:30.576Z,15.50
2017-12-26T02:02:57.464Z,16.35
2017-12-26T02:05:24.318Z,15.23
2017-12-26T02:07:51.162Z,14.32
2017-12-26T02:10:18.050Z,17.12
2017-12-26T02:12:45.654Z,16.60
2017-12-26T02:15:12.487Z,15.60
2017-12-26T02:17:39.382Z,18.42
2017-12-26T02:20:06.286Z,17.48
2017-12-26T02:22:33.158Z,16.45
2017-12-26T02:25:00.086Z,17.62
2017-12-26T02:27:27.620Z,17.90
2017-12-26T02:29:54.500Z,17.33
2017-12-26T02:32:21.456Z,16.90
2017-12-26T02:34:48.562Z,18.05
2017-12-26T02:37:16.167Z,16.17
2017-12-26T02:39:43.038Z,16.25
2017-12-26T02:42:09.893Z,15.43
2017-12-26T02:44:36.726Z,15.00
2017-12-26T02:47:04.342Z,14.27
2017-12-26T02:49:31.181Z,15.80
2017-12-26T02:51:58.050Z,15.30
2017-12-26T02:54:24.920Z,15.05
2017-12-26T02:56:52.517Z,14.57
2017-12-26T02:59:19.374Z,14.80
2017-12-26T03:01:46.399Z,16.08
2017-12-26T03:04:13.254Z,13.52
2017-12-26T03:06:40.114Z,14.57
2017-12-26T03:09:06.993Z,13.32
2017-12-26T03:11:34.870Z,16.62
2017-12-26T03:14:01.779Z,16.05
2017-12-26T03:16:28.651Z,15.65
2017-12-26T03:18:55.542Z,18.30
2017-12-26T03:21:22.419Z,18.08
2017-12-26T03:23:49.242Z,21.90
2017-12-26T03:26:16.106Z,25.85
2017-12-26T03:28:42.986Z,26.25
2017-12-26T03:31:09.895Z,26.80
2017-12-26T03:33:36.770Z,25.30
2017-12-26T03:36:03.629Z,24.85
2017-12-26T03:38:31.242Z,21.45
2017-12-26T03:40:58.094Z,22.70
2017-12-26T03:43:24.957Z,23.95
2017-12-26T03:45:52.595Z,21.77
2017-12-26T03:48:19.434Z,21.87
2017-12-26T03:50:46.266Z,22.77
2017-12-26T03:53:13.154Z,24.58
2017-12-26T03:55:40.762Z,22.92
2017-12-26T03:58:07.594Z,23.10
2017-12-26T04:00:34.468Z,24.85
2017-12-26T04:03:01.358Z,24.20
2017-12-26T04:05:28.930Z,22.75
2017-12-26T04:07:55.802Z,21.70
2017-12-26T04:10:23.422Z,22.62
2017-12-26T04:12:50.408Z,21.33
2017-12-26T04:15:17.331Z,18.30
2017-12-26T04:17:44.178Z,16.33
2017-12-26T04:20:11.073Z,14.18
2017-12-26T04:22:38.683Z,14.90
2017-12-26T04:25:05.550Z,15.10
2017-12-26T04:27:32.444Z,12.48
2017-12-26T04:29:59.317Z,12.18
2017-12-26T04:32:26.159Z,12.18
2017-12-26T04:34:53.018Z,11.18
2017-12-26T04:37:19.910Z,12.52
2017-12-26T04:39:46.771Z,12.07
2017-12-26T04:42:13.662Z,10.50
2017-12-26T04:44:40.530Z,10.25
2017-12-26T04:47:08.178Z,10.88
2017-12-26T04:49:35.812Z,11.70
2017-12-26T04:52:02.713Z,9.88
2017-12-26T04:54:29.591Z,11.70
2017-12-26T04:56:56.449Z,11.10
2017-12-26T04:59:23.299Z,10.27
2017-12-26T05:01:50.165Z,10.10
2017-12-26T05:04:17.028Z,10.05
2017-12-26T05:06:43.933Z,10.07
2017-12-26T05:09:10.774Z,10.40
2017-12-26T05:11:38.987Z,10.10
2017-12-26T05:14:06.610Z,9.90
2017-12-26T05:16:33.470Z,10.00
2017-12-26T05:19:00.314Z,8.52
2017-12-26T05:21:27.195Z,8.30
2017-12-26T05:23:54.046Z,9.85
2017-12-26T05:26:20.925Z,9.25
2017-12-26T05:28:47.834Z,10.32
2017-12-26T05:31:14.727Z,8.52
2017-12-26T05:33:41.591Z,8.05
2017-12-26T05:36:09.211Z,8.38
2017-12-26T05:38:36.078Z,8.80
2017-12-26T05:41:02.970Z,8.13
2017-12-26T05:43:29.819Z,8.02
2017-12-26T05:45:57.455Z,8.43
2017-12-26T05:48:24.327Z,8.10
2017-12-26T05:50:51.190Z,8.02
2017-12-26T05:53:18.079Z,8.57
2017-12-26T05:55:44.978Z,8.25
2017-12-26T05:58:11.872Z,7.30
2017-12-26T06:00:39.610Z,8.80
2017-12-26T06:03:06.589Z,8.32
2017-12-26T06:05:33.425Z,7.10
2017-12-26T06:08:00.282Z,7.97
2017-12-26T06:10:27.178Z,7.95
2017-12-26T06:12:54.083Z,7.50
2017-12-26T06:15:22.231Z,10.75
2017-12-26T06:17:49.625Z,9.80
2017-12-26T06:20:16.878Z,10.95
2017-12-26T06:22:44.811Z,10.70
2017-12-26T06:25:12.003Z,12.43
2017-12-26T06:27:38.978Z,12.40
2017-12-26T06:30:06.254Z,13.93
2017-12-26T06:32:33.515Z,9.23
2017-12-26T06:35:00.418Z,9.85
2017-12-26T06:37:27.293Z,8.75
2017-12-26T06:39:54.171Z,8.23
2017-12-26T06:42:24.095Z,7.80
2017-12-26T06:44:51.967Z,7.37
2017-12-26T06:47:18.879Z,7.62
2017-12-26T06:49:49.419Z,7.18
2017-12-26T06:52:16.539Z,8.27
2017-12-26T06:54:43.586Z,8.20
2017-12-26T06:57:11.498Z,8.90
2017-12-26T06:59:38.363Z,7.37
2017-12-26T07:02:06.286Z,7.57
2017-12-26T07:04:33.188Z,8.82
2017-12-26T07:07:01.187Z,7.65
2017-12-26T07:09:28.095Z,7.82
2017-12-26T07:11:54.963Z,6.43
2017-12-26T07:14:22.582Z,8.57
2017-12-26T07:19:42.123Z,14.25
2017-12-26T07:25:27.102Z,17.20
2017-12-26T07:27:54.038Z,18.75
2017-12-26T07:30:21.634Z,19.75
2017-12-26T07:32:48.534Z,19.95
2017-12-26T07:35:15.466Z,20.45
2017-12-26T07:37:42.318Z,18.62
2017-12-26T07:40:09.295Z,20.17
2017-12-26T07:42:36.370Z,19.98
2017-12-26T07:45:03.258Z,19.62
2017-12-26T07:47:31.145Z,19.90
2017-12-26T07:49:58.102Z,17.45
2017-12-26T07:52:25.024Z,19.65
2017-12-26T07:54:52.763Z,18.35
2017-12-26T07:57:19.586Z,17.62
2017-12-26T07:59:46.543Z,19.12
2017-12-26T08:02:15.374Z,20.67
2017-12-26T08:04:42.986Z,20.08
2017-12-26T08:07:18.391Z,22.90
2017-12-26T08:10:18.919Z,23.80
2017-12-26T08:12:49.943Z,21.73
2017-12-26T08:15:23.255Z,23.58
2017-12-26T08:17:50.256Z,25.27
2017-12-26T08:20:18.194Z,21.73
2017-12-26T08:22:45.114Z,24.50
2017-12-26T08:25:11.951Z,21.50
2017-12-26T08:27:39.538Z,21.25
2017-12-26T08:30:06.379Z,21.92
2017-12-26T08:32:33.667Z,21.02
2017-12-26T08:35:01.554Z,22.00
2017-12-26T08:37:28.410Z,23.08
2017-12-26T08:39:55.259Z,21.08
2017-12-26T08:42:22.106Z,22.20
2017-12-26T08:44:48.943Z,20.95
2017-12-26T08:47:16.577Z,22.73
2017-12-26T08:49:44.171Z,22.95
2017-12-26T08:52:11.026Z,22.90
2017-12-26T08:54:38.622Z,23.30
2017-12-26T08:57:05.494Z,22.75
2017-12-26T08:59:32.374Z,21.65
2017-12-26T09:01:59.254Z,21.85
2017-12-26T09:04:26.113Z,21.67
2017-12-26T09:06:53.715Z,19.37
2017-12-26T09:09:20.606Z,19.75
2017-12-26T09:11:47.494Z,20.45
2017-12-26T09:14:14.358Z,20.35
2017-12-26T09:16:41.228Z,20.05
2017-12-26T09:19:08.130Z,22.20
2017-12-26T09:21:35.002Z,20.67
2017-12-26T09:24:01.874Z,19.58
2017-12-26T09:26:29.617Z,21.80
2017-12-26T09:28:56.485Z,19.12
2017-12-26T09:31:23.381Z,19.30
2017-12-26T09:33:50.241Z,19.52
2017-12-26T09:36:17.123Z,20.15
2017-12-26T09:38:43.978Z,20.12
2017-12-26T09:41:11.043Z,21.00
2017-12-26T09:43:37.954Z,22.23
2017-12-26T09:46:05.575Z,20.85
2017-12-26T09:48:32.447Z,21.15
2017-12-26T09:50:59.295Z,20.88
2017-12-26T09:53:26.139Z,21.90
2017-12-26T09:55:52.985Z,24.85
2017-12-26T09:58:19.827Z,22.45
2017-12-26T10:00:46.702Z,25.40
2017-12-26T10:03:13.578Z,24.77
2017-12-26T10:05:40.472Z,22.33
2017-12-26T10:08:08.111Z,22.75
2017-12-26T10:10:34.974Z,22.70
2017-12-26T10:13:02.574Z,22.37
2017-12-26T10:15:30.260Z,22.10
2017-12-26T10:17:57.959Z,20.25
2017-12-26T10:20:24.932Z,20.25
2017-12-26T10:22:52.146Z,18.43
2017-12-26T10:25:19.027Z,21.45
2017-12-26T10:27:45.912Z,19.95
2017-12-26T10:30:12.787Z,17.93
2017-12-26T10:32:40.077Z,18.80
2017-12-26T10:35:07.074Z,16.93
2017-12-26T10:37:34.060Z,16.77
2017-12-26T10:40:01.390Z,15.50
2017-12-26T10:42:28.372Z,18.40
2017-12-26T10:44:55.231Z,15.77
2017-12-26T10:47:23.310Z,16.17
2017-12-26T10:49:51.160Z,16.67
2017-12-26T10:52:18.055Z,16.37
2017-12-26T10:54:45.274Z,14.43
2017-12-26T10:57:12.912Z,15.00
2017-12-26T10:59:39.775Z,17.10
2017-12-26T11:02:06.959Z,16.57
2017-12-26T11:04:34.006Z,14.57
2017-12-26T11:07:00.956Z,15.77
2017-12-26T11:09:28.633Z,14.80
2017-12-26T11:11:55.860Z,15.80
2017-12-26T11:14:22.953Z,18.27
2017-12-26T11:16:49.888Z,17.27
2017-12-26T11:19:17.048Z,17.07
2017-12-26T11:21:44.749Z,18.50
2017-12-26T11:24:11.644Z,22.30
2017-12-26T11:26:38.528Z,17.87
2017-12-26T11:29:05.389Z,16.80
2017-12-26T11:31:32.281Z,15.67
2017-12-26T11:33:59.871Z,19.67
2017-12-26T11:36:26.793Z,16.87
2017-12-26T11:38:53.639Z,18.50
2017-12-26T11:41:20.632Z,19.07
2017-12-26T11:43:48.712Z,19.03
2017-12-26T11:46:15.626Z,18.10
2017-12-26T11:48:42.937Z,18.43
2017-12-26T11:51:09.990Z,19.97
2017-12-26T11:53:37.089Z,19.10
2017-12-26T11:56:03.971Z,17.50
2017-12-26T11:58:31.572Z,17.57
2017-12-26T12:00:58.455Z,15.47
2017-12-26T12:03:25.361Z,17.47
2017-12-26T12:05:53.011Z,18.30
2017-12-26T12:08:19.915Z,16.60
2017-12-26T12:10:47.100Z,17.30
2017-12-26T12:13:17.560Z,16.70
2017-12-26T12:15:51.428Z,15.90
2017-12-26T12:18:18.544Z,15.73
2017-12-26T12:20:45.631Z,15.40
2017-12-26T12:23:13.312Z,15.30
2017-12-26T12:25:40.556Z,15.40
2017-12-26T12:28:07.648Z,17.30
2017-12-26T12:30:34.699Z,14.30
2017-12-26T12:33:01.660Z,15.70
2017-12-26T12:35:28.541Z,16.60
2017-12-26T12:37:55.794Z,16.23
2017-12-26T12:40:23.664Z,18.90
2017-12-26T12:42:50.607Z,18.97
2017-12-26T12:45:17.650Z,17.93
2017-12-26T12:47:50.788Z,18.67
2017-12-26T12:50:20.699Z,16.80
2017-12-26T12:52:47.591Z,16.87
2017-12-26T12:55:14.852Z,16.60
2017-12-26T12:57:41.811Z,15.83
2017-12-26T13:00:08.896Z,15.10
2017-12-26T13:02:35.827Z,15.57
2017-12-26T13:05:02.740Z,17.27
2017-12-26T13:07:29.576Z,15.20
2017-12-26T13:09:56.483Z,16.33
2017-12-26T13:12:23.473Z,14.77
2017-12-26T13:14:50.380Z,16.87
2017-12-26T13:17:17.232Z,16.30
2017-12-26T13:19:44.820Z,15.77
2017-12-26T13:22:11.687Z,15.57
2017-12-26T13:24:38.604Z,15.23
2017-12-26T13:27:05.508Z,15.60
2017-12-26T13:29:32.371Z,14.70
2017-12-26T13:31:59.408Z,15.67
2017-12-26T13:34:26.304Z,16.73
2017-12-26T13:36:53.158Z,15.40
2017-12-26T13:39:20.046Z,15.60
2017-12-26T13:41:46.910Z,16.73
2017-12-26T13:44:13.754Z,16.37
2017-12-26T13:46:40.599Z,15.60
2017-12-26T13:49:07.503Z,16.47
2017-12-26T13:51:34.386Z,15.40
2017-12-26T13:54:01.606Z,14.57
2017-12-26T13:56:28.582Z,16.07
2017-12-26T13:58:55.431Z,15.13
2017-12-26T14:01:22.322Z,15.33
2017-12-26T14:03:49.157Z,15.20
2017-12-26T14:06:15.995Z,14.70
2017-12-26T14:08:43.590Z,14.73
2017-12-26T14:11:10.450Z,14.60
2017-12-26T14:13:37.288Z,15.53
2017-12-26T14:16:04.166Z,14.83
2017-12-26T14:18:31.039Z,14.50
2017-12-26T14:20:57.890Z,14.70
2017-12-26T14:23:25.523Z,14.80
2017-12-26T14:25:52.394Z,15.17
2017-12-26T14:28:20.052Z,15.70
2017-12-26T14:30:46.910Z,14.00
2017-12-26T14:33:13.786Z,14.80
2017-12-26T14:35:40.641Z,14.17
2017-12-26T14:38:07.502Z,13.77
2017-12-26T14:40:34.379Z,13.80
2017-12-26T14:43:01.259Z,12.95
2017-12-26T14:45:28.177Z,14.63
2017-12-26T14:47:55.103Z,12.85
2017-12-26T14:50:21.975Z,14.35
2017-12-26T14:52:49.598Z,14.68
2017-12-26T14:55:16.475Z,14.77
2017-12-26T14:57:43.347Z,14.87
2017-12-26T15:00:10.574Z,14.95
2017-12-26T15:02:38.268Z,17.90
2017-12-26T15:05:05.165Z,17.25
2017-12-26T15:07:32.042Z,17.65
2017-12-26T15:09:59.635Z,19.77
2017-12-26T15:12:26.523Z,20.40
2017-12-26T15:14:53.402Z,23.38
2017-12-26T15:17:20.646Z,24.55
2017-12-26T15:19:47.671Z,31.98
2017-12-26T15:22:14.611Z,33.83
2017-12-26T15:24:41.532Z,28.65
2017-12-26T15:27:09.332Z,33.15
2017-12-26T15:29:36.434Z,32.03
2017-12-26T15:32:03.382Z,35.70
2017-12-26T15:34:30.364Z,34.88
2017-12-26T15:36:57.515Z,35.90
2017-12-26T15:39:24.491Z,39.85
2017-12-26T15:41:51.454Z,39.10
2017-12-26T15:44:18.379Z,32.78
2017-12-26T15:46:45.290Z,30.77
2017-12-26T15:49:12.475Z,28.45
2017-12-26T15:51:39.504Z,27.52
2017-12-26T15:54:06.675Z,27.25
2017-12-26T15:56:33.579Z,22.37
2017-12-26T15:59:00.551Z,22.15
2017-12-26T16:01:27.666Z,22.17
2017-12-26T16:03:54.842Z,20.73
2017-12-26T16:06:21.995Z,21.80
2017-12-26T16:08:49.035Z,21.27
2017-12-26T16:11:16.134Z,20.67
2017-12-26T16:13:43.749Z,24.25
2017-12-26T16:16:10.800Z,23.62
2017-12-26T16:18:37.717Z,23.95
2017-12-26T16:21:04.840Z,22.92
2017-12-26T16:23:31.932Z,21.85
2017-12-26T16:25:59.030Z,21.90
2017-12-26T16:28:26.141Z,24.58
2017-12-26T16:30:53.230Z,22.70
2017-12-26T16:33:20.334Z,22.40
2017-12-26T16:35:47.361Z,23.10
2017-12-26T16:38:14.302Z,23.20
2017-12-26T16:40:41.146Z,22.37
2017-12-26T16:43:08.506Z,21.87
2017-12-26T16:45:36.525Z,21.75
2017-12-26T16:48:03.471Z,22.35
2017-12-26T16:50:30.338Z,25.20
2017-12-26T16:52:57.427Z,26.10
2017-12-26T16:55:24.460Z,27.00
2017-12-26T16:57:51.472Z,30.42
2017-12-26T17:00:18.519Z,26.90
2017-12-26T17:02:45.430Z,27.83
2017-12-26T17:05:12.442Z,26.85
2017-12-26T17:07:39.411Z,26.10
2017-12-26T17:10:07.267Z,26.45
2017-12-26T17:12:34.218Z,27.70
2017-12-26T17:15:01.163Z,25.98
2017-12-26T17:17:28.483Z,25.35
2017-12-26T17:19:55.758Z,23.42
2017-12-26T17:22:22.899Z,26.58
2017-12-26T17:24:49.844Z,24.85
2017-12-26T17:27:16.829Z,21.52
2017-12-26T17:29:43.859Z,23.73
2017-12-26T17:32:11.531Z,22.90
2017-12-26T17:34:38.660Z,23.25
2017-12-26T17:37:06.024Z,19.83
2017-12-26T17:39:33.135Z,22.48
2017-12-26T17:42:00.350Z,18.15
2017-12-26T17:44:27.483Z,16.85
2017-12-26T17:46:55.302Z,18.65
2017-12-26T17:49:22.260Z,18.48
2017-12-26T17:51:49.156Z,19.55
2017-12-26T17:54:16.483Z,16.35
2017-12-26T17:56:43.559Z,15.23
2017-12-26T17:59:10.651Z,14.43
2017-12-26T18:01:37.682Z,14.25
2017-12-26T18:04:05.511Z,14.00
2017-12-26T18:06:32.434Z,13.75
2017-12-26T18:08:59.406Z,13.30
2017-12-26T18:11:26.728Z,17.10
2017-12-26T18:13:54.715Z,16.30
2017-12-26T18:16:22.546Z,17.62
2017-12-26T18:18:49.466Z,17.75
2017-12-26T18:21:17.598Z,16.70
2017-12-26T18:23:44.832Z,17.95
2017-12-26T18:26:11.715Z,25.37
2017-12-26T18:31:11.046Z,20.58
2017-12-26T18:33:38.203Z,26.33
2017-12-26T18:36:05.962Z,24.05
2017-12-26T18:38:33.137Z,22.80
2017-12-26T18:41:00.110Z,22.13
2017-12-26T18:43:26.976Z,20.90
2017-12-26T18:45:54.045Z,18.23
2017-12-26T18:48:21.092Z,16.08
2017-12-26T18:50:48.032Z,16.87
2017-12-26T18:53:14.905Z,14.48
2017-12-26T18:55:42.059Z,17.10
2017-12-26T18:58:09.043Z,15.88
2017-12-26T19:00:36.132Z,14.18
2017-12-26T19:03:03.242Z,13.13
2017-12-26T19:05:30.961Z,14.48
2017-12-26T19:07:58.019Z,14.85
2017-12-26T19:10:24.913Z,15.27
2017-12-26T19:12:51.814Z,13.35
2017-12-26T19:15:19.054Z,14.75
2017-12-26T19:17:46.097Z,15.40
2017-12-26T19:20:13.020Z,13.93
2017-12-26T19:22:40.129Z,15.75
2017-12-26T19:25:07.345Z,13.82
2017-12-26T19:27:34.966Z,14.05
2017-12-26T19:30:01.882Z,13.57
2017-12-26T19:32:29.947Z,13.00
2017-12-26T19:34:56.938Z,14.10
2017-12-26T19:37:24.166Z,14.25
2017-12-26T19:39:51.373Z,13.88
2017-12-26T19:42:19.221Z,15.32
2017-12-26T19:44:46.583Z,13.90
2017-12-26T19:47:13.938Z,13.30
2017-12-26T19:49:41.625Z,17.30
2017-12-26T19:52:08.551Z,15.20
2017-12-26T19:54:36.273Z,26.37
2017-12-26T19:57:03.435Z,19.37
2017-12-26T19:59:30.520Z,17.33
2017-12-26T20:01:57.721Z,17.35
2017-12-26T20:04:24.656Z,18.77
2017-12-26T20:06:52.299Z,16.17
2017-12-26T20:09:19.434Z,17.08
2017-12-26T20:11:46.703Z,16.80
2017-12-26T20:14:13.846Z,15.93
2017-12-26T20:16:41.776Z,15.40
2017-12-26T20:19:08.762Z,15.07
2017-12-26T20:21:36.858Z,15.48
2017-12-26T20:24:03.994Z,14.80
2017-12-26T20:26:30.980Z,16.42
2017-12-26T20:28:58.353Z,15.73
2017-12-26T20:31:25.447Z,15.95
2017-12-26T20:33:52.418Z,16.48
2017-12-26T20:36:19.355Z,16.98
2017-12-26T20:38:46.593Z,17.35
2017-12-26T20:41:13.610Z,17.70
2017-12-26T20:43:41.346Z,16.73
2017-12-26T20:46:08.483Z,16.58
2017-12-26T20:48:35.726Z,16.37
2017-12-26T20:51:02.937Z,16.90
2017-12-26T20:53:29.918Z,16.08
2017-12-26T20:55:57.011Z,16.27
2017-12-26T20:58:24.211Z,18.52
2017-12-26T21:00:51.219Z,17.77
2017-12-26T21:03:18.167Z,18.65
2017-12-26T21:05:45.336Z,19.45
2017-12-26T21:08:12.577Z,18.70
2017-12-26T21:10:39.677Z,17.65
2017-12-26T21:13:06.983Z,17.17
2017-12-26T21:15:33.972Z,15.80
2017-12-26T21:18:01.271Z,19.08
2017-12-26T21:20:28.813Z,19.60
2017-12-26T21:22:57.445Z,19.60
2017-12-26T21:25:24.382Z,17.80
2017-12-26T21:27:51.501Z,18.23
2017-12-26T21:30:18.754Z,19.05
2017-12-26T21:32:45.772Z,17.83
2017-12-26T21:35:13.174Z,15.57
2017-12-26T21:37:40.177Z,22.20
2017-12-26T21:40:07.156Z,21.02
2017-12-26T21:42:34.160Z,20.60
2017-12-26T21:45:01.880Z,22.98
2017-12-26T21:47:28.911Z,22.05
2017-12-26T21:49:55.954Z,25.33
2017-12-26T21:52:22.830Z,24.70
2017-12-26T21:54:49.886Z,22.95
2017-12-26T21:57:16.869Z,25.40
2017-12-26T21:59:43.694Z,22.48
2017-12-26T22:02:10.558Z,23.38
2017-12-26T22:04:38.214Z,21.92
2017-12-26T22:07:06.064Z,23.25
2017-12-26T22:09:33.110Z,24.00
2017-12-26T22:11:59.960Z,23.55
2017-12-26T22:14:27.798Z,21.77
2017-12-26T22:16:55.471Z,24.73
2017-12-26T22:19:22.334Z,23.92
2017-12-26T22:21:49.945Z,22.95
2017-12-26T22:24:16.810Z,22.27
2017-12-26T22:26:43.697Z,21.62
2017-12-26T22:29:10.531Z,22.15
2017-12-26T22:31:37.387Z,20.60
2017-12-26T22:34:04.258Z,20.02
2017-12-26T22:36:31.318Z,22.42
2017-12-26T22:38:58.174Z,23.38
2017-12-26T22:41:25.069Z,26.92
2017-12-26T22:43:51.976Z,29.63
2017-12-26T22:46:18.857Z,27.15
2017-12-26T22:48:46.470Z,27.70
2017-12-26T22:51:13.326Z,28.90
2017-12-26T22:53:40.530Z,30.08
2017-12-26T22:56:08.223Z,25.90
2017-12-26T22:58:35.117Z,22.80
2017-12-26T23:01:02.036Z,25.95
2017-12-26T23:03:29.035Z,21.73
2017-12-26T23:05:55.986Z,20.98
2017-12-26T23:08:22.861Z,19.80
2017-12-26T23:10:49.742Z,19.37
2017-12-26T23:13:16.606Z,19.12
2017-12-26T23:15:49.590Z,18.80
2017-12-26T23:18:20.505Z,18.23
2017-12-26T23:20:53.604Z,17.37
2017-12-26T23:23:26.425Z,18.42
2017-12-26T23:25:59.319Z,16.80
2017-12-26T23:31:29.978Z,17.65
2017-12-26T23:34:03.059Z,16.00
2017-12-26T23:36:36.366Z,14.02
2017-12-26T23:39:09.514Z,14.23
2017-12-26T23:41:42.483Z,13.40
2017-12-26T23:44:16.870Z,14.48
2017-12-26T23:46:56.678Z,13.90
2017-12-26T23:49:30.348Z,15.18
2017-12-26T23:52:07.214Z,14.57
2017-12-26T23:54:40.270Z,13.45
2017-12-26T23:57:13.145Z,13.30
2017-12-26T23:59:46.030Z,12.07
